Time;durP1;ratioP1;P1;durP2;ratioP2;P2;SDS_P1;SDS_P2;PMS_P1;PMS_P2;Temp;Humidity;BMP_temperature;BMP_pressure;BME280_temperature;BME280_humidity;BME280_pressure;Samples;Min_cycle;Max_cycle;Signal;HPM_P1;HPM_P2
2023/01/03 00:00:43;;;;;;;13.50;7.40;;;21.60;68.40;;;;;;214113;1297;25259;-56
2023/01/03 00:06:14;;;;;;;14.10;7.30;;;21.50;68.20;;;;;;214096;1299;25302;-56
2023/01/03 00:16:49;;;;;;;12.30;6.40;;;21.50;67.80;;;;;;213965;1286;22491;-55
2023/01/03 00:21:53;;;;;;;11.00;6.60;;;21.50;67.50;;;;;;213954;1296;22467;-57
2023/01/03 00:26:58;;;;;;;12.40;6.90;;;21.50;67.30;;;;;;214187;1306;22537;-55
2023/01/03 00:32:03;;;;;;;12.50;6.90;;;21.50;67.30;;;;;;213757;1301;24469;-57
2023/01/03 00:37:07;;;;;;;10.60;6.00;;;21.50;67.20;;;;;;214070;1298;22606;-56
2023/01/03 00:42:12;;;;;;;12.20;6.30;;;21.50;66.50;;;;;;214385;1306;22471;-56
2023/01/03 00:47:16;;;;;;;10.40;6.00;;;21.40;66.90;;;;;;213915;1284;22735;-57
2023/01/03 00:52:20;;;;;;;10.80;6.50;;;21.40;66.70;;;;;;213983;1298;23047;-57
2023/01/03 00:57:25;;;;;;;9.50;6.30;;;21.40;66.80;;;;;;217058;1296;22472;-53
2023/01/03 01:02:29;;;;;;;9.90;5.90;;;21.40;66.70;;;;;;222391;1282;22242;-55
2023/01/03 01:07:34;;;;;;;8.90;5.80;;;21.30;66.60;;;;;;214590;1289;26576;-58
2023/01/03 01:12:39;;;;;;;9.70;5.60;;;21.40;66.60;;;;;;214444;1291;24354;-55
2023/01/03 01:17:43;;;;;;;7.50;5.80;;;21.30;66.40;;;;;;214313;1287;23191;-55
2023/01/03 01:22:48;;;;;;;9.70;6.40;;;21.30;66.40;;;;;;215247;1279;25632;-57
2023/01/03 01:27:52;;;;;;;8.40;5.60;;;21.30;66.80;;;;;;214213;1306;24391;-59
2023/01/03 01:32:56;;;;;;;10.00;6.00;;;21.30;66.30;;;;;;214077;1285;24279;-59
2023/01/03 01:38:00;;;;;;;8.00;5.40;;;21.30;66.40;;;;;;214126;1289;22487;-57
2023/01/03 01:48:43;;;;;;;9.00;5.60;;;21.30;66.30;;;;;;214074;1304;25278;-56
2023/01/03 01:53:50;;;;;;;6.80;5.00;;;21.30;65.90;;;;;;214080;1299;22456;-57
2023/01/03 01:58:55;;;;;;;7.60;5.00;;;21.20;66.00;;;;;;214167;1294;24436;-57
2023/01/03 02:04:11;;;;;;;8.00;5.40;;;21.20;65.80;;;;;;214112;1297;24421;-57
2023/01/03 02:09:15;;;;;;;7.10;4.50;;;21.20;65.90;;;;;;218467;1305;22483;-56
2023/01/03 02:15:08;;;;;;;8.60;5.60;;;21.20;65.70;;;;;;215641;1287;24188;-56
2023/01/03 02:20:15;;;;;;;7.20;4.60;;;21.20;65.70;;;;;;216039;1305;22635;-58
2023/01/03 02:25:51;;;;;;;6.70;4.70;;;21.20;65.60;;;;;;212970;1310;22686;-57
2023/01/03 02:31:04;;;;;;;6.80;4.90;;;21.20;65.20;;;;;;212916;1307;22474;-56
2023/01/03 02:36:19;;;;;;;6.10;4.30;;;21.30;66.00;;;;;;212809;1312;22492;-58
2023/01/03 02:42:56;;;;;;;7.90;4.30;;;21.40;65.50;;;;;;212839;1312;22598;-56
2023/01/03 02:47:19;;;;;;;5.80;4.20;;;21.60;65.20;;;;;;212477;1307;22478;-55
2023/01/03 02:52:27;;;;;;;6.70;5.10;;;21.80;64.80;;;;;;212768;1309;22462;-56
2023/01/03 02:57:45;;;;;;;5.70;4.20;;;21.90;64.60;;;;;;213740;1306;22458;-56
2023/01/03 03:02:55;;;;;;;7.20;4.30;;;22.00;64.10;;;;;;213949;1294;22538;-56
2023/01/03 03:08:00;;;;;;;6.40;4.30;;;22.20;63.80;;;;;;214259;1294;25313;-56
2023/01/03 03:13:32;;;;;;;5.60;3.80;;;22.30;63.90;;;;;;214056;1284;24018;-56
2023/01/03 03:18:48;;;;;;;;;;;22.40;63.50;;;;;;214035;1296;22428;-55
2023/01/03 03:29:20;;;;;;;4.70;3.80;;;22.50;63.20;;;;;;213987;1306;22472;-57
2023/01/03 03:34:28;;;;;;;4.70;4.10;;;22.60;63.00;;;;;;214028;1291;23857;-56
2023/01/03 03:45:01;;;;;;;6.10;4.00;;;22.70;62.70;;;;;;213940;1304;22462;-56
2023/01/03 03:50:24;;;;;;;4.70;3.80;;;22.80;62.40;;;;;;214010;1294;22465;-56
2023/01/03 03:55:40;;;;;;;4.50;3.50;;;22.70;62.60;;;;;;214106;1301;22460;-57
2023/01/03 04:00:48;;;;;;;4.40;4.00;;;22.70;62.30;;;;;;213778;1284;24438;-56
2023/01/03 04:06:05;;;;;;;4.40;3.40;;;22.70;62.40;;;;;;222370;1287;22219;-56
2023/01/03 04:11:09;;;;;;;4.90;4.20;;;22.70;62.40;;;;;;217716;1291;24215;-56
2023/01/03 04:16:13;;;;;;;4.20;3.70;;;22.60;62.40;;;;;;214546;1295;25200;-57
2023/01/03 04:21:18;;;;;;;5.60;3.90;;;22.60;62.60;;;;;;214083;1289;25236;-56
2023/01/03 04:26:23;;;;;;;3.40;3.10;;;22.50;62.50;;;;;;213933;1305;22495;-57
2023/01/03 04:31:28;;;;;;;4.50;3.40;;;22.50;62.60;;;;;;214026;1294;24280;-55
2023/01/03 04:36:33;;;;;;;4.00;3.00;;;22.40;62.80;;;;;;214345;1297;22473;-55
2023/01/03 04:41:37;;;;;;;3.80;3.40;;;22.40;62.80;;;;;;214374;1296;24334;-56
2023/01/03 04:46:42;;;;;;;5.40;3.60;;;22.40;62.90;;;;;;214128;1302;23848;-58
2023/01/03 04:51:54;;;;;;;3.70;3.40;;;22.30;62.80;;;;;;214106;1297;22554;-57
2023/01/03 04:56:58;;;;;;;5.50;3.00;;;22.30;62.90;;;;;;213983;1305;25513;-56
2023/01/03 05:02:03;;;;;;;4.20;3.40;;;22.30;62.90;;;;;;214098;1296;23327;-57
2023/01/03 05:07:07;;;;;;;4.40;3.20;;;22.20;63.00;;;;;;214147;1302;22469;-56
2023/01/03 05:12:12;;;;;;;4.10;3.30;;;22.20;63.40;;;;;;214035;1304;22588;-57
2023/01/03 05:17:20;;;;;;;3.50;2.90;;;22.10;63.10;;;;;;214398;1292;23458;-55
2023/01/03 05:27:47;;;;;;;5.30;3.10;;;22.00;63.30;;;;;;213934;1292;22517;-56
2023/01/03 05:32:51;;;;;;;2.80;2.50;;;22.00;63.20;;;;;;213853;1304;25402;-56
2023/01/03 05:37:56;;;;;;;4.50;3.00;;;22.00;63.40;;;;;;214160;1291;22511;-56
2023/01/03 05:43:00;;;;;;;3.20;2.90;;;21.90;63.30;;;;;;214002;1296;22460;-55
2023/01/03 05:48:06;;;;;;;3.60;2.90;;;21.90;63.40;;;;;;214350;1301;22455;-56
2023/01/03 05:53:10;;;;;;;3.60;3.30;;;21.90;63.60;;;;;;214297;1287;24436;-55
2023/01/03 05:58:14;;;;;;;2.70;2.50;;;21.90;63.40;;;;;;214013;1298;24207;-54
2023/01/03 06:03:19;;;;;;;3.60;3.20;;;21.90;63.60;;;;;;214034;1292;22576;-56
2023/01/03 06:08:23;;;;;;;2.90;2.60;;;21.80;63.60;;;;;;214153;1296;22905;-55
2023/01/03 06:13:27;;;;;;;3.20;2.70;;;21.80;63.60;;;;;;214104;1305;24263;-57
2023/01/03 06:18:33;;;;;;;2.80;2.60;;;21.80;63.60;;;;;;214030;1287;22530;-56
2023/01/03 06:23:37;;;;;;;2.60;2.40;;;21.80;64.00;;;;;;213845;1304;22483;-56
2023/01/03 06:28:41;;;;;;;3.70;2.60;;;21.70;63.70;;;;;;214220;1298;25368;-55
2023/01/03 06:33:46;;;;;;;2.80;2.50;;;21.70;63.60;;;;;;214082;1303;22520;-55
2023/01/03 06:38:52;;;;;;;3.00;2.40;;;21.70;64.10;;;;;;213839;1291;22690;-56
2023/01/03 06:43:57;;;;;;;5.00;2.60;;;21.70;64.10;;;;;;214300;1297;22809;-55
2023/01/03 06:54:28;;;;;;;5.50;2.60;;;21.60;64.10;;;;;;214133;1294;22496;-56
2023/01/03 06:59:32;;;;;;;3.70;2.70;;;21.60;64.50;;;;;;214433;1281;25506;-58
2023/01/03 07:04:36;;;;;;;3.30;2.30;;;21.60;64.90;;;;;;213927;1292;22465;-56
2023/01/03 07:09:41;;;;;;;3.70;2.50;;;21.60;65.40;;;;;;214268;1305;22481;-58
2023/01/03 07:14:46;;;;;;;7.40;2.60;;;21.60;65.50;;;;;;214040;1301;25319;-57
2023/01/03 07:19:49;;;;;;;6.00;3.00;;;21.60;65.40;;;;;;214156;1298;22455;-55
2023/01/03 07:24:54;;;;;;;5.60;2.90;;;21.60;66.10;;;;;;213809;1291;24266;-57
2023/01/03 07:29:58;;;;;;;7.10;2.40;;;21.60;65.60;;;;;;214196;1304;22605;-57
2023/01/03 07:35:03;;;;;;;4.30;2.40;;;21.60;65.20;;;;;;214213;1298;23849;-53
2023/01/03 07:40:08;;;;;;;2.70;1.90;;;21.50;65.00;;;;;;213854;1290;25560;-57
2023/01/03 07:45:13;;;;;;;5.00;2.30;;;21.50;65.10;;;;;;213750;1297;24427;-56
2023/01/03 07:50:18;;;;;;;5.20;2.60;;;21.50;64.60;;;;;;214513;1294;22461;-55
2023/01/03 07:55:23;;;;;;;3.50;2.60;;;21.50;64.50;;;;;;214003;1293;23442;-55
2023/01/03 08:00:28;;;;;;;3.40;2.10;;;21.40;64.40;;;;;;213901;1299;22461;-56
2023/01/03 08:05:36;;;;;;;3.70;1.90;;;21.40;64.30;;;;;;213962;1285;24155;-57
2023/01/03 08:16:07;;;;;;;12.30;3.40;;;21.40;64.30;;;;;;213974;1298;22521;-56
2023/01/03 08:21:13;;;;;;;3.10;2.10;;;21.40;64.20;;;;;;213971;1287;170280;-58
2023/01/03 08:26:17;;;;;;;2.20;2.00;;;21.40;64.00;;;;;;214197;1304;25496;-56
2023/01/03 08:31:24;;;;;;;2.20;1.90;;;21.40;63.90;;;;;;214440;1288;23487;-56
2023/01/03 08:36:33;;;;;;;5.40;1.90;;;21.30;63.90;;;;;;214030;1289;24308;-55
2023/01/03 08:41:42;;;;;;;4.00;1.80;;;21.30;63.80;;;;;;214293;1288;22469;-55
2023/01/03 08:46:50;;;;;;;1.80;1.60;;;21.30;64.20;;;;;;214154;1299;22857;-55
2023/01/03 08:51:54;;;;;;;2.00;1.70;;;21.30;63.60;;;;;;214326;1304;22697;-55
2023/01/03 08:56:58;;;;;;;3.00;1.70;;;21.30;64.30;;;;;;214325;1304;22467;-54
2023/01/03 09:02:03;;;;;;;1.60;1.50;;;21.30;64.10;;;;;;213915;1287;24263;-54
2023/01/03 09:07:08;;;;;;;1.90;1.70;;;21.20;63.60;;;;;;214129;1298;22533;-54
2023/01/03 09:12:12;;;;;;;1.40;1.30;;;21.20;63.50;;;;;;213949;1291;25308;-56
2023/01/03 09:17:16;;;;;;;4.90;2.20;;;21.40;63.60;;;;;;214628;1278;22465;-53
2023/01/03 09:22:20;;;;;;;2.20;1.50;;;21.50;63.20;;;;;;214655;1287;22471;-53
2023/01/03 09:27:25;;;;;;;2.50;1.50;;;21.70;63.30;;;;;;214061;1287;24407;-55
2023/01/03 09:32:29;;;;;;;3.60;1.60;;;21.80;62.70;;;;;;216854;1297;24018;-55
2023/01/03 09:37:33;;;;;;;1.90;1.80;;;21.90;62.40;;;;;;214113;1285;22509;-57
2023/01/03 09:48:03;;;;;;;1.70;1.50;;;22.00;62.30;;;;;;214195;1292;22500;-58
2023/01/03 10:04:26;;;;;;;1.70;1.50;;;22.30;61.70;;;;;;213835;1299;22453;-56
2023/01/03 10:09:52;;;;;;;1.50;1.40;;;22.40;61.40;;;;;;214035;1289;22467;-56
2023/01/03 10:15:21;;;;;;;1.90;1.40;;;22.50;61.40;;;;;;213865;1287;25278;-57
2023/01/03 10:20:29;;;;;;;3.90;1.30;;;22.50;61.10;;;;;;213960;1278;24257;-55
2023/01/03 10:25:42;;;;;;;1.40;1.30;;;22.60;60.90;;;;;;213648;1287;22520;-57
2023/01/03 10:30:46;;;;;;;3.60;1.60;;;22.60;60.70;;;;;;213873;1304;23971;-56
2023/01/03 10:36:00;;;;;;;1.60;1.40;;;22.70;60.60;;;;;;214332;1299;25257;-58
2023/01/03 10:41:19;;;;;;;1.60;1.50;;;22.70;60.70;;;;;;214071;1284;24271;-55
2023/01/03 10:46:25;;;;;;;1.30;1.20;;;22.70;60.70;;;;;;213915;1282;24384;-55
2023/01/03 10:52:00;;;;;;;2.40;1.60;;;22.70;60.80;;;;;;213934;1300;25263;-58
2023/01/03 10:57:04;;;;;;;1.30;1.20;;;22.60;60.80;;;;;;214168;1277;22705;-57
2023/01/03 11:02:13;;;;;;;1.10;1.00;;;22.60;60.80;;;;;;214297;1299;25297;-56
2023/01/03 11:07:18;;;;;;;1.50;1.10;;;22.60;60.90;;;;;;213781;1285;24257;-56
2023/01/03 11:12:27;;;;;;;5.70;1.30;;;22.50;61.00;;;;;;214128;1299;25436;-57
2023/01/03 11:17:31;;;;;;;3.00;1.30;;;22.50;61.50;;;;;;213887;1287;22485;-58
2023/01/03 11:22:55;;;;;;;2.00;1.20;;;22.50;61.70;;;;;;213935;1304;22495;-58
2023/01/03 11:28:03;;;;;;;1.50;1.40;;;22.40;62.40;;;;;;213765;1278;24440;-58
2023/01/03 11:33:32;;;;;;;2.90;1.60;;;22.50;61.70;;;;;;213952;1306;24260;-56
2023/01/03 11:39:10;;;;;;;1.60;1.50;;;22.60;61.50;;;;;;213824;1285;22862;-57
2023/01/03 11:44:26;;;;;;;3.00;1.30;;;22.60;61.20;;;;;;213702;1284;22471;-58
2023/01/03 11:49:48;;;;;;;1.40;1.30;;;22.40;61.50;;;;;;215031;1297;22601;-57
2023/01/03 11:55:32;;;;;;;2.80;1.30;;;22.40;61.20;;;;;;213792;1295;22468;-58
2023/01/03 12:00:48;;;;;;;1.60;1.30;;;22.30;61.20;;;;;;214400;1299;22742;-59
2023/01/03 12:06:20;;;;;;;2.10;1.60;;;22.30;61.20;;;;;;214158;1304;25370;-57
2023/01/03 12:11:46;;;;;;;1.70;1.30;;;22.30;61.20;;;;;;214002;1287;22498;-59
2023/01/03 12:17:15;;;;;;;1.40;1.30;;;22.20;61.20;;;;;;214096;1298;22712;-58
2023/01/03 12:22:23;;;;;;;3.10;1.30;;;22.10;61.10;;;;;;214024;1294;24317;-57
2023/01/03 12:27:37;;;;;;;1.10;1.00;;;22.20;61.10;;;;;;213934;1297;22636;-58
2023/01/03 12:32:52;;;;;;;1.30;1.20;;;22.10;61.00;;;;;;213981;1290;23798;-57
2023/01/03 12:37:57;;;;;;;2.90;1.40;;;22.20;61.00;;;;;;214107;1291;25294;-57
2023/01/03 12:43:11;;;;;;;1.40;1.20;;;22.10;60.90;;;;;;216810;1291;25312;-58
2023/01/03 12:48:48;;;;;;;2.00;1.20;;;22.10;60.90;;;;;;214256;1291;22460;-58
2023/01/03 12:54:10;;;;;;;1.20;1.10;;;22.00;61.20;;;;;;214238;1285;22477;-57
2023/01/03 12:59:39;;;;;;;1.90;1.30;;;22.00;61.20;;;;;;213976;1299;22472;-58
2023/01/03 13:04:44;;;;;;;1.50;1.10;;;22.00;60.90;;;;;;214230;1276;25288;-59
2023/01/03 13:09:54;;;;;;;1.30;1.20;;;21.90;60.80;;;;;;214126;1285;22591;-59
2023/01/03 13:15:28;;;;;;;1.20;0.90;;;21.90;61.50;;;;;;214198;1287;22458;-57
2023/01/03 13:20:39;;;;;;;1.30;1.20;;;21.90;60.80;;;;;;214033;1287;24289;-59
2023/01/03 13:26:04;;;;;;;1.30;1.20;;;21.80;60.80;;;;;;214080;1290;24002;-57
2023/01/03 13:31:17;;;;;;;1.70;1.10;;;21.80;60.80;;;;;;213928;1299;22718;-58
2023/01/03 13:36:23;;;;;;;1.40;1.20;;;21.80;60.30;;;;;;214088;1284;24275;-59
2023/01/03 13:41:34;;;;;;;0.80;0.80;;;21.80;60.80;;;;;;213942;1292;22467;-58
2023/01/03 13:46:40;;;;;;;1.10;1.00;;;21.70;60.80;;;;;;213922;1304;22598;-56
2023/01/03 13:51:47;;;;;;;1.20;1.00;;;21.70;60.80;;;;;;213778;1290;24619;-59
2023/01/03 13:56:51;;;;;;;0.90;0.90;;;21.70;60.90;;;;;;213919;1287;22595;-60
2023/01/03 14:02:10;;;;;;;1.10;1.00;;;21.70;60.80;;;;;;214065;1287;22467;-58
2023/01/03 14:07:34;;;;;;;1.20;1.10;;;21.60;61.20;;;;;;214240;1285;22677;-58
2023/01/03 14:12:57;;;;;;;1.00;0.90;;;21.60;61.20;;;;;;213872;1297;24266;-58
2023/01/03 14:18:13;;;;;;;1.40;1.30;;;21.60;60.90;;;;;;213752;1288;24238;-58
2023/01/03 14:23:21;;;;;;;1.60;1.20;;;21.50;60.90;;;;;;213753;1298;22649;-59
2023/01/03 14:28:50;;;;;;;0.80;0.70;;;21.50;60.90;;;;;;213819;1297;22473;-58
2023/01/03 14:34:02;;;;;;;1.10;1.10;;;21.50;61.30;;;;;;213770;1299;25394;-58
2023/01/03 14:39:20;;;;;;;1.20;1.10;;;21.50;60.90;;;;;;213900;1278;24025;-58
2023/01/03 14:44:24;;;;;;;2.70;0.80;;;21.50;60.90;;;;;;213928;1288;24436;-59
2023/01/03 14:49:36;;;;;;;3.30;1.10;;;21.40;60.60;;;;;;214235;1297;22461;-58
2023/01/03 14:54:50;;;;;;;5.00;1.40;;;21.40;60.60;;;;;;213819;1296;24257;-56
2023/01/03 14:59:59;;;;;;;1.70;1.10;;;21.40;60.70;;;;;;214006;1287;25232;-58
2023/01/03 15:05:34;;;;;;;3.40;1.10;;;21.40;60.80;;;;;;213680;1303;25264;-56
2023/01/03 15:10:48;;;;;;;3.60;1.40;;;21.40;60.90;;;;;;213805;1289;24196;-57
2023/01/03 15:15:55;;;;;;;2.60;0.90;;;21.40;61.00;;;;;;213901;1306;22468;-58
2023/01/03 15:21:01;;;;;;;6.80;1.10;;;21.60;60.40;;;;;;213920;1287;24402;-56
2023/01/03 15:26:16;;;;;;;3.80;1.00;;;21.70;61.20;;;;;;213671;1288;25438;-55
2023/01/03 15:31:28;;;;;;;2.20;1.10;;;21.90;60.10;;;;;;213969;1291;22492;-56
2023/01/03 15:36:33;;;;;;;1.50;1.20;;;22.00;60.00;;;;;;213759;1297;22466;-57
2023/01/03 15:47:24;;;;;;;1.60;1.10;;;22.20;59.60;;;;;;213604;1298;22859;-55
2023/01/03 15:52:28;;;;;;;4.10;0.90;;;22.30;59.60;;;;;;213562;1299;23712;-57
2023/01/03 15:57:34;;;;;;;2.30;1.30;;;22.40;59.50;;;;;;213743;1276;22514;-55
2023/01/03 16:02:38;;;;;;;1.10;1.00;;;22.50;59.50;;;;;;221736;1297;22278;-56
2023/01/03 16:07:42;;;;;;;2.30;1.00;;;22.50;59.20;;;;;;222367;1283;22087;-57
2023/01/03 16:12:46;;;;;;;3.60;1.20;;;22.60;59.20;;;;;;222361;1297;22999;-54
2023/01/03 16:17:51;;;;;;;1.70;1.20;;;22.70;58.60;;;;;;220339;1290;22483;-57
2023/01/03 16:22:55;;;;;;;5.20;1.00;;;22.70;58.00;;;;;;214047;1284;24287;-56
2023/01/03 16:28:04;;;;;;;1.90;0.90;;;22.80;57.80;;;;;;213925;1298;22477;-57
2023/01/03 16:33:19;;;;;;;4.20;1.60;;;22.80;57.50;;;;;;214209;1298;22489;-56
2023/01/03 16:38:24;;;;;;;1.50;1.40;;;22.80;57.50;;;;;;215561;1299;25274;-56
2023/01/03 16:43:28;;;;;;;4.60;1.10;;;22.70;57.10;;;;;;213979;1285;22551;-56
2023/01/03 16:48:38;;;;;;;4.70;1.90;;;22.70;57.00;;;;;;214219;1299;24236;-58
2023/01/03 16:53:42;;;;;;;1.20;1.20;;;22.70;57.00;;;;;;213980;1298;26692;-56
2023/01/03 16:58:46;;;;;;;4.40;2.00;;;22.60;56.60;;;;;;213906;1287;22511;-58
2023/01/03 17:03:50;;;;;;;7.00;2.20;;;22.60;56.60;;;;;;214151;1294;22466;-58
2023/01/03 17:08:56;;;;;;;8.20;2.40;;;22.50;57.30;;;;;;214279;1287;23772;-58
2023/01/03 17:14:02;;;;;;;5.40;2.40;;;22.50;58.50;;;;;;213990;1304;22741;-58
2023/01/03 17:19:14;;;;;;;5.60;2.90;;;22.50;59.30;;;;;;214320;1285;22468;-57
2023/01/03 17:24:39;;;;;;;4.50;2.50;;;22.40;59.40;;;;;;214030;1289;24442;-58
2023/01/03 17:29:45;;;;;;;6.20;2.80;;;22.40;59.40;;;;;;213930;1279;25285;-59
2023/01/03 17:34:49;;;;;;;4.60;3.00;;;22.30;59.70;;;;;;214142;1302;25251;-57
2023/01/03 17:39:59;;;;;;;7.80;2.80;;;22.30;58.90;;;;;;214035;1298;22489;-58
2023/01/03 17:50:29;;;;;;;3.60;2.80;;;22.20;58.80;;;;;;213955;1299;25248;-58
2023/01/03 17:55:34;;;;;;;8.90;3.30;;;22.20;58.40;;;;;;214158;1290;22469;-56
2023/01/03 18:00:38;;;;;;;6.10;3.90;;;22.10;58.30;;;;;;213936;1289;24348;-58
2023/01/03 18:05:42;;;;;;;8.00;3.20;;;22.00;58.10;;;;;;214071;1306;22474;-58
2023/01/03 18:10:47;;;;;;;6.20;3.60;;;22.00;58.70;;;;;;214029;1306;22597;-56
2023/01/03 18:15:53;;;;;;;5.80;3.80;;;22.00;58.00;;;;;;213773;1294;22474;-58
2023/01/03 18:20:58;;;;;;;7.80;3.70;;;22.00;57.80;;;;;;214050;1282;23204;-56
2023/01/03 18:26:09;;;;;;;5.90;4.20;;;21.90;57.70;;;;;;213792;1284;22465;-57
2023/01/03 18:31:16;;;;;;;5.40;4.30;;;21.90;58.00;;;;;;214075;1291;24211;-58
2023/01/03 18:36:23;;;;;;;5.80;4.70;;;21.80;57.50;;;;;;213712;1298;24302;-57
2023/01/03 18:41:30;;;;;;;7.10;5.10;;;21.80;57.50;;;;;;213817;1279;24259;-58
2023/01/03 18:46:34;;;;;;;6.60;5.30;;;21.70;57.30;;;;;;213931;1289;23892;-59
2023/01/03 18:51:40;;;;;;;9.00;5.10;;;21.70;57.20;;;;;;213939;1290;22476;-57
2023/01/03 18:56:45;;;;;;;8.70;5.70;;;21.70;57.50;;;;;;214066;1296;22469;-57
2023/01/03 19:01:50;;;;;;;7.40;5.40;;;21.70;57.90;;;;;;213965;1287;22470;-56
2023/01/03 19:06:55;;;;;;;7.30;6.20;;;21.70;57.80;;;;;;214130;1298;24238;-57
2023/01/03 19:12:01;;;;;;;10.80;5.50;;;21.60;57.90;;;;;;214109;1299;25357;-57
2023/01/03 19:17:11;;;;;;;9.90;6.00;;;21.60;58.50;;;;;;213934;1284;22492;-58
2023/01/03 19:22:28;;;;;;;7.60;5.80;;;21.50;58.20;;;;;;214126;1299;22516;-57
2023/01/03 19:27:43;;;;;;;8.00;7.00;;;21.50;58.60;;;;;;214295;1285;22516;-57
2023/01/03 19:32:53;;;;;;;6.90;6.20;;;21.50;58.60;;;;;;213937;1305;25301;-57
2023/01/03 19:37:57;;;;;;;14.00;7.30;;;21.50;58.20;;;;;;213866;1290;24270;-57
2023/01/03 19:43:03;;;;;;;9.60;7.90;;;21.50;58.20;;;;;;214098;1290;22565;-58
2023/01/03 19:48:28;;;;;;;13.80;9.00;;;21.40;58.40;;;;;;213940;1281;22477;-58
2023/01/03 19:53:32;;;;;;;17.90;10.60;;;21.40;58.40;;;;;;213842;1280;23628;-58
2023/01/03 19:58:41;;;;;;;18.70;11.40;;;21.40;58.00;;;;;;213841;1298;22537;-62
2023/01/03 20:03:46;;;;;;;16.70;10.40;;;21.40;58.60;;;;;;213858;1306;25303;-61
2023/01/03 20:08:53;;;;;;;17.10;10.90;;;21.40;58.60;;;;;;213832;1306;24260;-64
2023/01/03 20:13:59;;;;;;;15.30;10.80;;;21.30;58.80;;;;;;213943;1300;25443;-65
2023/01/03 20:19:10;;;;;;;13.70;10.10;;;21.30;58.70;;;;;;214058;1295;22499;-65
2023/01/03 20:24:30;;;;;;;15.60;11.10;;;21.20;58.40;;;;;;213723;1303;207617;-65
2023/01/03 20:29:34;;;;;;;15.90;11.80;;;21.20;58.60;;;;;;214225;1294;24394;-67
2023/01/03 20:34:39;;;;;;;14.00;10.90;;;21.20;58.60;;;;;;214089;1305;24510;-67
2023/01/03 20:39:44;;;;;;;17.70;12.10;;;21.20;58.40;;;;;;213908;1289;22467;-67
2023/01/03 20:44:49;;;;;;;17.30;12.50;;;21.10;58.50;;;;;;213726;1288;22620;-66
2023/01/03 20:49:54;;;;;;;21.90;12.80;;;21.10;59.00;;;;;;214014;1304;22482;-66
2023/01/03 20:54:59;;;;;;;20.10;12.50;;;21.20;58.80;;;;;;214005;1305;25370;-66
2023/01/03 21:00:05;;;;;;;23.40;12.40;;;21.30;58.10;;;;;;214567;1282;22511;-65
2023/01/03 21:05:12;;;;;;;17.60;12.20;;;21.50;57.80;;;;;;214211;1289;22452;-66
2023/01/03 21:10:23;;;;;;;19.60;11.30;;;21.50;57.80;;;;;;214099;1292;24433;-67
2023/01/03 21:15:28;;;;;;;20.40;11.30;;;21.60;57.60;;;;;;214167;1304;22480;-66
2023/01/03 21:20:34;;;;;;;19.60;11.50;;;21.70;57.70;;;;;;214095;1281;22713;-66
2023/01/03 21:25:39;;;;;;;16.90;12.10;;;21.80;57.70;;;;;;214027;1305;22651;-67
2023/01/03 21:30:45;;;;;;;14.50;11.10;;;21.90;57.70;;;;;;214045;1301;22572;-58
2023/01/03 21:35:50;;;;;;;18.70;12.30;;;22.00;57.30;;;;;;214703;1299;22470;-61
2023/01/03 21:40:55;;;;;;;17.70;12.10;;;22.10;57.80;;;;;;213901;1284;22449;-59
2023/01/03 21:46:05;;;;;;;18.10;12.30;;;22.10;57.60;;;;;;214124;1291;23018;-59
2023/01/03 21:51:11;;;;;;;16.20;12.90;;;22.20;57.40;;;;;;214051;1304;22499;-60
2023/01/03 21:56:23;;;;;;;14.00;11.50;;;22.20;56.90;;;;;;214030;1298;25367;-59
2023/01/03 22:01:28;;;;;;;16.40;11.80;;;22.20;57.00;;;;;;214099;1291;23056;-59
2023/01/03 22:06:33;;;;;;;14.40;11.20;;;22.20;57.00;;;;;;213901;1292;24248;-60
2023/01/03 22:11:38;;;;;;;14.30;11.80;;;22.30;56.90;;;;;;214053;1299;26483;-59
2023/01/03 22:16:42;;;;;;;13.80;11.30;;;22.40;56.90;;;;;;214954;1287;24467;-57
2023/01/03 22:21:46;;;;;;;16.40;11.90;;;22.40;56.90;;;;;;214062;1291;22585;-59
2023/01/03 22:26:51;;;;;;;17.40;11.70;;;22.30;57.20;;;;;;214851;1299;23847;-59
2023/01/03 22:31:55;;;;;;;13.50;11.30;;;22.30;57.00;;;;;;213823;1302;23854;-57
2023/01/03 22:36:59;;;;;;;13.20;11.50;;;22.30;57.10;;;;;;213913;1286;22850;-60
2023/01/03 22:42:03;;;;;;;13.60;11.90;;;22.30;57.30;;;;;;214080;1292;25304;-60
2023/01/03 22:47:07;;;;;;;15.50;11.70;;;22.20;57.30;;;;;;214019;1292;23029;-61
2023/01/03 22:52:12;;;;;;;17.80;11.60;;;22.10;57.70;;;;;;214138;1301;22453;-61
2023/01/03 22:57:16;;;;;;;15.60;11.30;;;22.10;58.00;;;;;;214149;1302;23845;-59
2023/01/03 23:02:20;;;;;;;13.10;11.20;;;22.10;58.80;;;;;;215500;1291;22456;-58
2023/01/03 23:07:32;;;;;;;14.50;11.10;;;22.10;58.80;;;;;;214165;1304;22880;-61
2023/01/03 23:18:00;;;;;;;18.20;12.20;;;22.00;58.90;;;;;;214207;1294;22462;-59
2023/01/03 23:23:04;;;;;;;17.30;11.60;;;22.00;62.30;;;;;;213858;1302;22461;-59
2023/01/03 23:28:08;;;;;;;17.90;12.00;;;21.90;63.40;;;;;;213978;1305;25296;-59
2023/01/03 23:33:12;;;;;;;16.50;12.90;;;21.90;63.80;;;;;;214136;1286;22479;-60
2023/01/03 23:38:16;;;;;;;14.10;11.60;;;21.80;64.00;;;;;;214063;1287;25307;-62
2023/01/03 23:43:21;;;;;;;14.50;11.40;;;21.80;64.10;;;;;;214139;1305;25359;-60
2023/01/03 23:48:25;;;;;;;14.40;11.00;;;21.80;63.80;;;;;;213904;1298;24245;-59
2023/01/03 23:53:30;;;;;;;14.90;12.20;;;21.80;63.80;;;;;;213992;1302;23811;-60
2023/01/03 23:58:34;;;;;;;13.40;11.40;;;21.70;63.70;;;;;;214403;1295;24857;-59
